createdAt,value
2022-09-13T00:01:31.507Z,92.21
2022-09-13T00:03:58.548Z,92.44
2022-09-13T00:06:25.559Z,93.33
2022-09-13T00:08:54.293Z,93.04
2022-09-13T00:11:26.750Z,93.09
2022-09-13T00:13:54.797Z,93.47
2022-09-13T00:16:25.107Z,92.35
2022-09-13T00:18:53.564Z,92.88
2022-09-13T00:21:22.466Z,93.60
2022-09-13T00:23:54.404Z,93.25
2022-09-13T00:26:26.282Z,91.74
2022-09-13T00:28:56.256Z,92.61
2022-09-13T00:31:25.419Z,92.97
2022-09-13T00:33:52.410Z,93.04
2022-09-13T00:36:19.413Z,93.02
2022-09-13T00:38:46.374Z,92.67
2022-09-13T00:41:18.511Z,92.52
2022-09-13T00:43:57.007Z,92.49
2022-09-13T00:46:49.298Z,92.83
2022-09-13T00:49:35.136Z,92.30
2022-09-13T00:52:07.496Z,91.73
2022-09-13T00:54:42.531Z,91.40
2022-09-13T00:57:11.665Z,91.92
2022-09-13T00:59:45.728Z,92.57
2022-09-13T01:02:13.495Z,92.30
2022-09-13T01:04:41.962Z,91.84
2022-09-13T01:07:11.910Z,91.83
2022-09-13T01:09:44.267Z,91.80
2022-09-13T01:12:32.153Z,92.31
2022-09-13T01:15:00.902Z,92.41
2022-09-13T01:17:30.251Z,92.42
2022-09-13T01:19:57.648Z,92.86
2022-09-13T01:22:51.088Z,92.87
2022-09-13T01:25:55.688Z,92.35
2022-09-13T01:28:53.371Z,91.93
2022-09-13T01:32:12.025Z,90.91
2022-09-13T01:35:14.763Z,92.09
2022-09-13T01:38:23.151Z,92.89
2022-09-13T01:41:23.157Z,92.54
2022-09-13T01:44:11.883Z,93.24
2022-09-13T01:47:19.839Z,91.52
2022-09-13T01:53:00.900Z,92.24
2022-09-13T01:55:39.849Z,93.00
2022-09-13T02:04:51.580Z,93.98
2022-09-13T02:07:25.871Z,93.84
2022-09-13T02:10:02.893Z,92.80
2022-09-13T02:12:35.900Z,92.29
2022-09-13T02:15:10.600Z,90.31
2022-09-13T02:17:42.365Z,91.03
2022-09-13T02:20:18.023Z,92.65
2022-09-13T02:22:49.117Z,93.11
2022-09-13T02:25:18.334Z,93.49
2022-09-13T02:27:51.598Z,92.99
2022-09-13T02:30:19.740Z,93.22
2022-09-13T02:32:53.939Z,94.45
2022-09-13T02:35:33.425Z,95.08
2022-09-13T02:38:07.016Z,94.80
2022-09-13T02:40:40.796Z,95.09
2022-09-13T02:43:33.645Z,95.26
2022-09-13T02:46:14.665Z,95.26
2022-09-13T02:49:31.856Z,94.99
2022-09-13T02:52:44.228Z,95.83
2022-09-13T02:55:31.806Z,95.77
2022-09-13T02:58:49.083Z,96.55
2022-09-13T03:01:16.293Z,97.26
2022-09-13T03:03:44.642Z,95.45
2022-09-13T03:06:11.581Z,94.56
2022-09-13T03:08:38.620Z,94.49
2022-09-13T03:11:25.513Z,95.49
2022-09-13T03:14:46.208Z,96.04
2022-09-13T03:17:32.902Z,95.35
2022-09-13T03:20:36.493Z,96.15
2022-09-13T03:23:35.466Z,96.25
2022-09-13T03:26:45.571Z,95.83
2022-09-13T03:29:54.108Z,96.51
2022-09-13T03:36:15.252Z,96.03
2022-09-13T03:42:02.167Z,94.91
2022-09-13T03:44:32.204Z,96.16
2022-09-13T03:47:04.594Z,95.91
2022-09-13T03:49:33.576Z,96.13
2022-09-13T03:52:01.001Z,96.05
2022-09-13T03:54:32.703Z,94.43
2022-09-13T03:57:29.631Z,94.95
2022-09-13T03:59:57.551Z,95.79
2022-09-13T04:02:26.714Z,95.94
2022-09-13T04:04:53.713Z,96.10
2022-09-13T04:07:22.619Z,95.61
2022-09-13T04:09:50.303Z,95.80
2022-09-13T04:12:18.571Z,96.01
2022-09-13T04:14:45.518Z,96.31
2022-09-13T04:17:13.528Z,95.22
2022-09-13T04:19:40.951Z,95.54
2022-09-13T04:22:07.885Z,94.63
2022-09-13T04:24:34.860Z,95.33
2022-09-13T04:27:02.075Z,95.61
2022-09-13T04:29:29.153Z,95.65
2022-09-13T04:31:56.287Z,95.32
2022-09-13T04:34:23.436Z,94.91
2022-09-13T04:36:52.419Z,94.68
2022-09-13T04:39:20.589Z,94.87
2022-09-13T04:41:48.696Z,94.21
2022-09-13T04:44:17.537Z,92.04
2022-09-13T04:46:48.398Z,90.79
2022-09-13T04:49:18.626Z,92.74
2022-09-13T04:51:45.715Z,94.52
2022-09-13T04:54:15.951Z,94.14
2022-09-13T04:56:46.429Z,94.82
2022-09-13T04:59:14.085Z,95.70
2022-09-13T05:01:41.864Z,96.11
2022-09-13T05:04:09.943Z,96.00
2022-09-13T05:06:37.256Z,96.85
2022-09-13T05:09:04.933Z,96.86
2022-09-13T05:11:32.259Z,97.50
2022-09-13T05:14:01.266Z,97.79
2022-09-13T05:16:33.672Z,96.35
2022-09-13T05:19:01.451Z,93.28
2022-09-13T05:21:30.340Z,92.14
2022-09-13T05:23:59.132Z,93.10
2022-09-13T05:26:30.184Z,92.37
2022-09-13T05:28:58.053Z,92.16
2022-09-13T05:31:36.885Z,91.75
2022-09-13T05:34:12.921Z,91.76
2022-09-13T05:36:41.498Z,91.07
2022-09-13T05:39:36.371Z,89.94
2022-09-13T05:42:02.776Z,90.68
2022-09-13T05:44:29.967Z,92.56
2022-09-13T05:46:58.493Z,90.91
2022-09-13T05:49:26.002Z,91.10
2022-09-13T05:51:53.716Z,91.43
2022-09-13T05:54:21.069Z,89.77
2022-09-13T05:56:48.287Z,90.06
2022-09-13T05:59:15.547Z,89.34
2022-09-13T06:01:43.861Z,88.84
2022-09-13T06:04:15.668Z,90.62
2022-09-13T06:06:42.816Z,87.87
2022-09-13T06:09:11.593Z,86.91
2022-09-13T06:11:39.333Z,87.86
2022-09-13T06:14:07.226Z,82.96
2022-09-13T06:16:35.494Z,85.23
2022-09-13T06:19:05.705Z,82.75
2022-09-13T06:21:35.598Z,82.99
2022-09-13T06:24:04.659Z,84.95
2022-09-13T06:26:35.432Z,82.60
2022-09-13T06:29:07.883Z,78.50
2022-09-13T06:31:35.788Z,77.11
2022-09-13T06:34:05.901Z,76.88
2022-09-13T06:36:33.122Z,78.36
2022-09-13T06:39:02.126Z,78.56
2022-09-13T06:41:29.231Z,75.90
2022-09-13T06:44:00.546Z,74.29
2022-09-13T06:46:29.616Z,76.29
2022-09-13T06:49:00.927Z,75.54
2022-09-13T06:51:30.792Z,76.34
2022-09-13T06:54:00.362Z,73.24
2022-09-13T06:56:31.265Z,77.39
2022-09-13T06:59:00.493Z,76.34
2022-09-13T07:01:30.790Z,73.11
2022-09-13T07:04:07.129Z,73.08
2022-09-13T07:06:40.239Z,71.27
2022-09-13T07:09:12.567Z,71.27
2022-09-13T07:11:43.075Z,70.56
2022-09-13T07:14:14.936Z,71.19
2022-09-13T07:16:42.261Z,69.14
2022-09-13T07:19:16.560Z,70.85
2022-09-13T07:21:44.419Z,71.23
2022-09-13T07:24:15.697Z,70.51
2022-09-13T07:26:43.479Z,70.88
2022-09-13T07:29:15.455Z,69.56
2022-09-13T07:31:48.865Z,68.93
2022-09-13T07:34:21.035Z,64.26
2022-09-13T07:36:49.490Z,65.66
2022-09-13T07:39:22.348Z,66.10
2022-09-13T07:41:51.022Z,64.49
2022-09-13T07:44:19.103Z,61.20
2022-09-13T07:46:46.706Z,62.31
2022-09-13T07:49:17.826Z,62.25
2022-09-13T07:51:46.723Z,63.46
2022-09-13T07:54:16.637Z,63.50
2022-09-13T07:56:50.729Z,63.72
2022-09-13T07:59:18.328Z,60.35
2022-09-13T08:01:48.397Z,60.99
2022-09-13T08:04:21.990Z,57.89
2022-09-13T08:06:49.595Z,58.19
2022-09-13T08:09:20.766Z,55.69
2022-09-13T08:11:52.356Z,55.44
2022-09-13T08:14:22.054Z,57.53
2022-09-13T08:16:55.515Z,53.80
2022-09-13T08:19:22.602Z,53.84
2022-09-13T08:21:49.588Z,53.24
2022-09-13T08:24:19.153Z,50.03
2022-09-13T08:26:46.506Z,50.95
2022-09-13T08:29:14.875Z,50.18
2022-09-13T08:31:42.082Z,48.86
2022-09-13T08:34:14.792Z,51.22
2022-09-13T08:36:41.916Z,52.55
2022-09-13T08:39:10.092Z,51.93
2022-09-13T08:42:32.850Z,48.96
2022-09-13T08:45:00.290Z,43.51
2022-09-13T08:47:52.651Z,44.83
2022-09-13T08:50:22.206Z,45.09
2022-09-13T08:53:20.523Z,44.62
2022-09-13T08:56:17.067Z,45.54
2022-09-13T08:59:34.490Z,45.14
2022-09-13T09:02:46.168Z,45.49
2022-09-13T09:05:19.835Z,44.58
2022-09-13T09:08:11.655Z,41.71
2022-09-13T09:10:42.930Z,41.63
2022-09-13T09:13:31.775Z,41.27
2022-09-13T09:16:07.336Z,38.47
2022-09-13T09:18:40.784Z,40.16
2022-09-13T09:21:15.017Z,39.64
2022-09-13T09:23:55.862Z,39.91
2022-09-13T09:26:31.795Z,40.56
2022-09-13T09:29:26.900Z,40.62
2022-09-13T09:32:32.394Z,40.69
2022-09-13T09:35:30.300Z,40.18
2022-09-13T09:38:34.049Z,40.63
2022-09-13T09:41:05.785Z,40.25
2022-09-13T09:43:40.104Z,41.27
2022-09-13T09:46:11.087Z,39.02
2022-09-13T09:48:54.839Z,38.67
2022-09-13T09:51:26.329Z,38.74
2022-09-13T09:54:02.964Z,39.93
2022-09-13T09:56:33.207Z,39.01
2022-09-13T09:59:00.820Z,40.15
2022-09-13T10:01:34.072Z,40.12
2022-09-13T10:04:22.300Z,41.11
2022-09-13T10:06:50.743Z,41.75
2022-09-13T10:09:20.819Z,39.37
2022-09-13T10:11:58.259Z,37.23
2022-09-13T10:14:41.914Z,37.42
2022-09-13T10:17:28.497Z,38.47
2022-09-13T10:20:04.978Z,37.92
2022-09-13T10:22:33.385Z,38.09
2022-09-13T10:25:29.056Z,37.74
2022-09-13T10:27:59.358Z,38.88
2022-09-13T10:30:43.040Z,38.77
2022-09-13T10:33:52.210Z,38.43
2022-09-13T10:36:50.565Z,38.55
2022-09-13T10:39:20.422Z,36.94
2022-09-13T10:42:04.211Z,35.50
2022-09-13T10:44:44.308Z,34.13
2022-09-13T10:47:20.257Z,34.13
2022-09-13T10:49:55.461Z,35.87
2022-09-13T10:52:41.059Z,35.31
2022-09-13T10:55:44.443Z,35.73
2022-09-13T10:58:16.946Z,36.26
2022-09-13T11:01:40.294Z,36.11
2022-09-13T11:05:09.878Z,34.15
2022-09-13T11:07:44.308Z,32.47
2022-09-13T11:10:38.028Z,34.30
2022-09-13T11:13:19.023Z,32.15
2022-09-13T11:16:29.149Z,31.99
2022-09-13T11:19:40.554Z,32.01
2022-09-13T11:22:53.063Z,31.79
2022-09-13T11:25:47.937Z,31.58
2022-09-13T11:29:03.066Z,30.91
2022-09-13T11:31:44.434Z,31.23
2022-09-13T11:35:02.630Z,32.06
2022-09-13T11:38:00.387Z,32.89
2022-09-13T11:40:58.703Z,31.37
2022-09-13T11:44:08.447Z,30.54
2022-09-13T11:46:49.383Z,30.86
2022-09-13T11:49:50.149Z,30.89
2022-09-13T11:52:37.931Z,29.86
2022-09-13T11:55:48.413Z,31.23
2022-09-13T11:58:20.907Z,31.04
2022-09-13T12:00:53.713Z,31.33
2022-09-13T12:03:32.251Z,31.01
2022-09-13T12:06:08.369Z,31.66
2022-09-13T12:08:38.387Z,30.33
2022-09-13T12:11:30.064Z,32.04
2022-09-13T12:14:01.346Z,31.87
2022-09-13T12:16:37.766Z,30.97
2022-09-13T12:19:21.386Z,31.63
2022-09-13T12:21:51.566Z,30.23
2022-09-13T12:24:38.517Z,31.13
2022-09-13T12:27:40.164Z,30.66
2022-09-13T12:30:29.055Z,30.96
2022-09-13T12:32:58.944Z,29.06
2022-09-13T12:35:36.372Z,30.39
2022-09-13T12:38:49.165Z,31.44
2022-09-13T12:41:54.854Z,31.42
2022-09-13T12:45:05.430Z,28.71
2022-09-13T12:48:14.334Z,29.75
2022-09-13T12:51:19.080Z,29.45
2022-09-13T12:54:36.552Z,30.12
2022-09-13T12:57:42.885Z,30.87
2022-09-13T13:00:43.651Z,30.13
2022-09-13T13:03:17.482Z,31.06
2022-09-13T13:05:55.158Z,30.52
2022-09-13T13:08:30.059Z,30.70
2022-09-13T13:11:15.896Z,30.92
2022-09-13T13:14:09.765Z,31.43
2022-09-13T13:16:40.998Z,31.80
2022-09-13T13:19:37.148Z,32.51
2022-09-13T13:22:49.994Z,31.39
2022-09-13T13:25:40.841Z,31.39
2022-09-13T13:28:29.005Z,31.88
2022-09-13T13:31:02.570Z,31.31
2022-09-13T13:33:32.059Z,30.51
2022-09-13T13:36:29.066Z,31.19
2022-09-13T13:38:57.141Z,32.38
2022-09-13T13:42:16.912Z,31.13
2022-09-13T13:45:21.463Z,30.86
2022-09-13T13:48:12.685Z,31.72
2022-09-13T13:51:16.596Z,32.99
2022-09-13T13:53:54.575Z,32.29
2022-09-13T13:56:44.344Z,31.37
2022-09-13T13:59:19.700Z,32.20
2022-09-13T14:02:02.046Z,31.74
2022-09-13T14:05:31.160Z,29.79
2022-09-13T14:08:48.899Z,30.86
2022-09-13T14:12:13.036Z,32.01
2022-09-13T14:18:25.875Z,32.45
2022-09-13T14:21:31.208Z,32.80
2022-09-13T14:24:19.085Z,31.49
2022-09-13T14:26:51.449Z,30.86
2022-09-13T14:29:28.400Z,29.97
2022-09-13T14:32:05.193Z,30.92
2022-09-13T14:34:37.629Z,29.75
2022-09-13T14:37:07.185Z,30.05
2022-09-13T14:39:34.195Z,30.04
2022-09-13T14:42:18.885Z,29.63
2022-09-13T14:44:47.332Z,29.34
2022-09-13T14:48:10.057Z,29.63
2022-09-13T14:50:43.264Z,29.43
2022-09-13T14:53:18.926Z,30.28
2022-09-13T14:55:51.778Z,28.43
2022-09-13T14:58:24.862Z,28.44
2022-09-13T15:01:04.145Z,29.04
2022-09-13T15:03:31.191Z,28.67
2022-09-13T15:06:00.813Z,29.28
2022-09-13T15:08:45.287Z,29.25
2022-09-13T15:11:16.513Z,29.72
2022-09-13T15:13:44.310Z,28.93
2022-09-13T15:16:31.988Z,29.22
2022-09-13T15:19:37.650Z,28.55
2022-09-13T15:22:23.878Z,26.71
2022-09-13T15:25:21.013Z,25.50
2022-09-13T15:27:49.109Z,24.20
2022-09-13T15:30:40.053Z,23.09
2022-09-13T15:33:23.867Z,22.70
2022-09-13T15:35:53.712Z,22.16
2022-09-13T15:38:31.927Z,21.50
2022-09-13T15:41:19.881Z,22.46
2022-09-13T15:43:49.940Z,22.63
2022-09-13T15:46:17.350Z,23.51
2022-09-13T15:49:06.013Z,23.31
2022-09-13T15:51:38.192Z,22.79
2022-09-13T15:54:15.022Z,22.14
2022-09-13T15:56:44.361Z,22.39
2022-09-13T15:59:15.394Z,23.00
2022-09-13T16:01:44.186Z,24.74
2022-09-13T16:04:12.218Z,23.67
2022-09-13T16:06:39.688Z,24.12
2022-09-13T16:09:32.720Z,26.21
2022-09-13T16:11:59.761Z,26.94
2022-09-13T16:14:26.894Z,28.16
2022-09-13T16:16:55.411Z,29.61
2022-09-13T16:19:25.400Z,30.46
2022-09-13T16:21:52.419Z,31.68
2022-09-13T16:24:19.448Z,32.86
2022-09-13T16:26:46.357Z,33.54
2022-09-13T16:29:13.821Z,34.04
2022-09-13T16:31:41.481Z,34.87
2022-09-13T16:34:09.311Z,35.45
2022-09-13T16:36:36.339Z,36.08
2022-09-13T16:39:04.076Z,37.09
2022-09-13T16:41:31.031Z,37.98
2022-09-13T16:43:57.973Z,38.36
2022-09-13T16:46:25.525Z,38.35
2022-09-13T16:48:57.013Z,38.85
2022-09-13T16:51:24.754Z,38.86
2022-09-13T16:53:53.091Z,39.35
2022-09-13T16:56:22.927Z,39.89
2022-09-13T16:58:51.047Z,40.42
2022-09-13T17:01:21.180Z,41.13
2022-09-13T17:03:50.836Z,41.36
2022-09-13T17:06:21.827Z,40.87
2022-09-13T17:08:52.320Z,41.63
2022-09-13T17:11:22.419Z,40.85
2022-09-13T17:13:50.221Z,41.55
2022-09-13T17:16:29.009Z,42.28
2022-09-13T17:19:01.333Z,43.36
2022-09-13T17:21:28.865Z,44.01
2022-09-13T17:23:56.214Z,44.52
2022-09-13T17:26:23.409Z,44.91
2022-09-13T17:28:50.398Z,45.02
2022-09-13T17:31:17.415Z,45.21
2022-09-13T17:33:44.452Z,45.44
2022-09-13T17:36:13.929Z,45.52
2022-09-13T17:38:41.969Z,46.36
2022-09-13T17:41:11.519Z,47.21
2022-09-13T17:43:39.774Z,47.49
2022-09-13T17:46:18.428Z,47.65
2022-09-13T17:48:45.369Z,47.96
2022-09-13T17:51:14.869Z,48.02
2022-09-13T17:54:03.285Z,48.29
2022-09-13T17:56:34.104Z,48.88
2022-09-13T17:59:15.818Z,49.21
2022-09-13T18:01:46.097Z,49.60
2022-09-13T18:04:14.478Z,49.74
2022-09-13T18:06:42.910Z,49.91
2022-09-13T18:09:10.848Z,49.75
2022-09-13T18:11:38.127Z,49.84
2022-09-13T18:14:05.247Z,49.93
2022-09-13T18:16:32.876Z,50.10
2022-09-13T18:19:00.766Z,50.98
2022-09-13T18:21:27.807Z,51.39
2022-09-13T18:23:58.401Z,51.75
2022-09-13T18:26:26.699Z,51.87
2022-09-13T18:29:01.843Z,51.97
2022-09-13T18:31:30.593Z,52.02
2022-09-13T18:34:11.327Z,52.11
2022-09-13T18:36:38.746Z,52.41
2022-09-13T18:39:07.508Z,52.56
2022-09-13T18:41:36.841Z,53.07
2022-09-13T18:44:05.171Z,53.29
2022-09-13T18:46:34.742Z,53.67
2022-09-13T18:49:03.345Z,53.96
2022-09-13T18:51:39.051Z,53.78
2022-09-13T18:54:08.064Z,53.86
2022-09-13T18:56:35.795Z,54.18
2022-09-13T18:59:05.016Z,54.30
2022-09-13T19:01:37.849Z,54.72
2022-09-13T19:04:16.375Z,55.17
2022-09-13T19:06:48.540Z,55.69
2022-09-13T19:09:16.947Z,56.10
2022-09-13T19:11:47.877Z,56.05
2022-09-13T19:14:24.087Z,56.23
2022-09-13T19:16:52.743Z,56.37
2022-09-13T19:19:19.816Z,56.29
2022-09-13T19:21:46.882Z,56.34
2022-09-13T19:24:18.690Z,56.62
2022-09-13T19:26:48.028Z,56.67
2022-09-13T19:29:18.069Z,56.78
2022-09-13T19:31:50.944Z,56.78
2022-09-13T19:34:19.900Z,56.70
2022-09-13T19:36:47.296Z,57.03
2022-09-13T19:39:14.471Z,57.11
2022-09-13T19:41:42.127Z,57.31
2022-09-13T19:44:10.886Z,57.53
2022-09-13T19:46:39.714Z,57.62
2022-09-13T19:49:08.696Z,58.40
2022-09-13T19:51:38.513Z,58.24
2022-09-13T19:54:07.788Z,58.96
2022-09-13T19:56:38.820Z,59.01
2022-09-13T19:59:07.268Z,59.29
2022-09-13T20:01:38.062Z,59.53
2022-09-13T20:04:17.637Z,59.66
2022-09-13T20:06:50.324Z,59.46
2022-09-13T20:09:19.701Z,59.61
2022-09-13T20:11:48.863Z,60.20
2022-09-13T20:14:18.479Z,60.63
2022-09-13T20:16:46.137Z,60.79
2022-09-13T20:19:40.652Z,61.12
2022-09-13T20:22:09.754Z,61.21
2022-09-13T20:24:37.503Z,61.03
2022-09-13T20:27:05.028Z,61.36
2022-09-13T20:29:32.178Z,61.58
2022-09-13T20:32:00.136Z,61.54
2022-09-13T20:34:28.259Z,61.61
2022-09-13T20:36:55.522Z,61.91
2022-09-13T20:39:22.641Z,62.00
2022-09-13T20:41:50.271Z,62.20
2022-09-13T20:44:17.407Z,62.39
2022-09-13T20:46:44.427Z,62.54
2022-09-13T20:49:12.036Z,62.78
2022-09-13T20:51:39.067Z,62.50
2022-09-13T20:54:06.432Z,62.85
2022-09-13T20:56:34.766Z,62.71
2022-09-13T20:59:02.520Z,63.56
2022-09-13T21:01:31.813Z,62.21
2022-09-13T21:04:00.274Z,64.01
2022-09-13T21:06:30.628Z,65.02
2022-09-13T21:09:01.803Z,65.13
2022-09-13T21:11:35.247Z,65.30
2022-09-13T21:14:04.746Z,65.20
2022-09-13T21:16:35.188Z,65.08
2022-09-13T21:19:02.648Z,65.30
2022-09-13T21:21:35.328Z,65.22
2022-09-13T21:24:04.540Z,65.81
2022-09-13T21:26:32.561Z,67.05
2022-09-13T21:29:00.239Z,67.06
2022-09-13T21:31:33.300Z,68.08
2022-09-13T21:34:02.433Z,68.85
2022-09-13T21:36:30.538Z,69.58
2022-09-13T21:38:57.871Z,68.78
2022-09-13T21:41:26.558Z,69.06
2022-09-13T21:43:54.385Z,70.03
2022-09-13T21:46:26.378Z,70.61
2022-09-13T21:48:58.772Z,70.65
2022-09-13T21:51:28.969Z,70.77
2022-09-13T21:53:59.141Z,70.82
2022-09-13T21:56:28.460Z,70.01
2022-09-13T21:58:58.935Z,70.57
2022-09-13T22:01:28.327Z,70.89
2022-09-13T22:03:57.809Z,71.09
2022-09-13T22:06:32.673Z,70.92
2022-09-13T22:09:13.232Z,70.53
2022-09-13T22:11:46.785Z,70.99
2022-09-13T22:14:22.006Z,70.91
2022-09-13T22:17:02.288Z,71.03
2022-09-13T22:19:35.442Z,71.57
2022-09-13T22:22:03.779Z,71.75
2022-09-13T22:24:35.912Z,72.14
2022-09-13T22:27:08.285Z,72.82
2022-09-13T22:29:47.627Z,73.98
2022-09-13T22:32:16.553Z,73.51
2022-09-13T22:34:47.626Z,73.85
2022-09-13T22:37:17.011Z,73.46
2022-09-13T22:39:44.389Z,72.77
2022-09-13T22:42:11.878Z,71.74
2022-09-13T22:44:38.862Z,72.25
2022-09-13T22:47:06.101Z,73.32
2022-09-13T22:49:33.086Z,74.07
2022-09-13T22:52:00.112Z,75.08
2022-09-13T22:54:28.634Z,75.17
2022-09-13T22:56:55.659Z,75.25
2022-09-13T22:59:22.733Z,74.34
2022-09-13T23:01:50.510Z,71.87
2022-09-13T23:04:17.889Z,71.18
2022-09-13T23:06:45.511Z,72.03
2022-09-13T23:09:15.309Z,72.50
2022-09-13T23:11:46.514Z,73.73
2022-09-13T23:14:15.812Z,75.02
2022-09-13T23:16:46.209Z,75.15
2022-09-13T23:19:13.883Z,75.15
2022-09-13T23:21:41.289Z,74.56
2022-09-13T23:24:12.513Z,74.21
2022-09-13T23:26:40.079Z,74.67
2022-09-13T23:29:07.135Z,74.21
2022-09-13T23:31:36.663Z,74.87
2022-09-13T23:34:05.974Z,74.51
2022-09-13T23:36:39.153Z,74.60
2022-09-13T23:39:14.215Z,74.75
2022-09-13T23:41:41.255Z,74.55
2022-09-13T23:44:08.196Z,73.99
2022-09-13T23:46:35.638Z,74.13
2022-09-13T23:49:02.609Z,74.91
2022-09-13T23:51:30.229Z,74.99
2022-09-13T23:53:58.127Z,74.87
2022-09-13T23:56:27.010Z,74.83
2022-09-13T23:58:57.244Z,74.44
